sensor_id;sensor_type;location;lat;lon;timestamp;P1;durP1;ratioP1;P2;durP2;ratioP2
7753;SDS011;3921;42.266;23.122;2022-10-16T00:01:29;6.43;;;4.93;;
7753;SDS011;3921;42.266;23.122;2022-10-16T00:03:57;6.97;;;5.20;;
7753;SDS011;3921;42.266;23.122;2022-10-16T00:06:26;6.10;;;4.97;;
7753;SDS011;3921;42.266;23.122;2022-10-16T00:08:54;8.47;;;5.87;;
7753;SDS011;3921;42.266;23.122;2022-10-16T00:11:22;8.30;;;5.77;;
7753;SDS011;3921;42.266;23.122;2022-10-16T00:13:54;6.00;;;5.40;;
7753;SDS011;3921;42.266;23.122;2022-10-16T00:16:24;7.50;;;5.13;;
7753;SDS011;3921;42.266;23.122;2022-10-16T00:18:55;7.00;;;5.07;;
7753;SDS011;3921;42.266;23.122;2022-10-16T00:21:24;8.73;;;4.90;;
7753;SDS011;3921;42.266;23.122;2022-10-16T00:23:53;5.93;;;4.80;;
7753;SDS011;3921;42.266;23.122;2022-10-16T00:26:27;9.13;;;5.07;;
7753;SDS011;3921;42.266;23.122;2022-10-16T00:29:00;6.83;;;4.90;;
7753;SDS011;3921;42.266;23.122;2022-10-16T00:31:29;6.07;;;5.13;;
7753;SDS011;3921;42.266;23.122;2022-10-16T00:33:56;6.13;;;4.73;;
7753;SDS011;3921;42.266;23.122;2022-10-16T00:36:24;8.20;;;4.97;;
7753;SDS011;3921;42.266;23.122;2022-10-16T00:38:52;6.37;;;4.13;;
7753;SDS011;3921;42.266;23.122;2022-10-16T00:41:20;6.30;;;4.57;;
7753;SDS011;3921;42.266;23.122;2022-10-16T00:43:50;5.93;;;4.90;;
7753;SDS011;3921;42.266;23.122;2022-10-16T00:46:19;5.27;;;4.70;;
7753;SDS011;3921;42.266;23.122;2022-10-16T00:48:50;5.77;;;4.47;;
7753;SDS011;3921;42.266;23.122;2022-10-16T00:51:21;6.03;;;4.93;;
7753;SDS011;3921;42.266;23.122;2022-10-16T00:53:52;6.80;;;4.50;;
7753;SDS011;3921;42.266;23.122;2022-10-16T00:56:21;5.83;;;4.73;;
7753;SDS011;3921;42.266;23.122;2022-10-16T00:58:48;6.30;;;4.90;;
7753;SDS011;3921;42.266;23.122;2022-10-16T01:01:16;5.63;;;4.60;;
7753;SDS011;3921;42.266;23.122;2022-10-16T01:03:43;9.20;;;5.00;;
7753;SDS011;3921;42.266;23.122;2022-10-16T01:06:19;6.73;;;5.10;;
7753;SDS011;3921;42.266;23.122;2022-10-16T01:09:00;6.07;;;4.80;;
7753;SDS011;3921;42.266;23.122;2022-10-16T01:11:38;6.63;;;4.70;;
7753;SDS011;3921;42.266;23.122;2022-10-16T01:14:14;5.90;;;4.97;;
7753;SDS011;3921;42.266;23.122;2022-10-16T01:16:49;5.10;;;4.60;;
7753;SDS011;3921;42.266;23.122;2022-10-16T01:19:26;7.33;;;5.27;;
7753;SDS011;3921;42.266;23.122;2022-10-16T01:22:18;7.70;;;4.50;;
7753;SDS011;3921;42.266;23.122;2022-10-16T01:24:48;5.60;;;4.87;;
7753;SDS011;3921;42.266;23.122;2022-10-16T01:27:21;8.30;;;5.13;;
7753;SDS011;3921;42.266;23.122;2022-10-16T01:29:52;5.97;;;4.63;;
7753;SDS011;3921;42.266;23.122;2022-10-16T01:32:24;6.10;;;4.67;;
7753;SDS011;3921;42.266;23.122;2022-10-16T01:34:58;5.83;;;4.50;;
7753;SDS011;3921;42.266;23.122;2022-10-16T01:37:32;7.67;;;4.73;;
7753;SDS011;3921;42.266;23.122;2022-10-16T01:40:05;6.23;;;4.63;;
7753;SDS011;3921;42.266;23.122;2022-10-16T01:42:38;6.90;;;4.70;;
7753;SDS011;3921;42.266;23.122;2022-10-16T01:45:07;5.67;;;4.60;;
7753;SDS011;3921;42.266;23.122;2022-10-16T01:47:42;6.17;;;4.87;;
7753;SDS011;3921;42.266;23.122;2022-10-16T01:50:12;5.17;;;4.33;;
7753;SDS011;3921;42.266;23.122;2022-10-16T01:52:43;7.57;;;4.87;;
7753;SDS011;3921;42.266;23.122;2022-10-16T01:55:21;6.13;;;4.57;;
7753;SDS011;3921;42.266;23.122;2022-10-16T01:58:05;5.47;;;4.90;;
7753;SDS011;3921;42.266;23.122;2022-10-16T02:00:46;5.93;;;4.77;;
7753;SDS011;3921;42.266;23.122;2022-10-16T02:03:20;6.03;;;4.77;;
7753;SDS011;3921;42.266;23.122;2022-10-16T02:05:49;5.73;;;4.90;;
7753;SDS011;3921;42.266;23.122;2022-10-16T02:08:24;6.67;;;4.90;;
7753;SDS011;3921;42.266;23.122;2022-10-16T02:10:58;6.67;;;4.80;;
7753;SDS011;3921;42.266;23.122;2022-10-16T02:13:29;5.33;;;4.60;;
7753;SDS011;3921;42.266;23.122;2022-10-16T02:15:59;6.67;;;5.03;;
7753;SDS011;3921;42.266;23.122;2022-10-16T02:18:26;8.10;;;4.30;;
7753;SDS011;3921;42.266;23.122;2022-10-16T02:20:57;6.40;;;4.67;;
7753;SDS011;3921;42.266;23.122;2022-10-16T02:23:29;8.13;;;4.23;;
7753;SDS011;3921;42.266;23.122;2022-10-16T02:26:09;5.13;;;4.50;;
7753;SDS011;3921;42.266;23.122;2022-10-16T02:28:42;8.50;;;4.70;;
7753;SDS011;3921;42.266;23.122;2022-10-16T02:34:04;6.43;;;4.70;;
7753;SDS011;3921;42.266;23.122;2022-10-16T02:36:33;5.83;;;4.53;;
7753;SDS011;3921;42.266;23.122;2022-10-16T02:39:07;6.80;;;4.63;;
7753;SDS011;3921;42.266;23.122;2022-10-16T02:41:36;6.47;;;5.00;;
7753;SDS011;3921;42.266;23.122;2022-10-16T02:44:06;5.43;;;4.43;;
7753;SDS011;3921;42.266;23.122;2022-10-16T02:46:35;5.17;;;4.60;;
7753;SDS011;3921;42.266;23.122;2022-10-16T02:54:14;6.07;;;4.43;;
7753;SDS011;3921;42.266;23.122;2022-10-16T02:56:44;6.43;;;4.67;;
7753;SDS011;3921;42.266;23.122;2022-10-16T03:02:12;6.50;;;5.07;;
7753;SDS011;3921;42.266;23.122;2022-10-16T03:04:50;4.73;;;4.23;;
7753;SDS011;3921;42.266;23.122;2022-10-16T03:07:35;8.93;;;4.77;;
7753;SDS011;3921;42.266;23.122;2022-10-16T03:10:03;7.00;;;4.60;;
7753;SDS011;3921;42.266;23.122;2022-10-16T03:12:32;7.03;;;4.70;;
7753;SDS011;3921;42.266;23.122;2022-10-16T03:15:04;6.73;;;5.00;;
7753;SDS011;3921;42.266;23.122;2022-10-16T03:17:32;9.30;;;5.07;;
7753;SDS011;3921;42.266;23.122;2022-10-16T03:20:03;7.50;;;4.70;;
7753;SDS011;3921;42.266;23.122;2022-10-16T03:22:33;9.10;;;5.07;;
7753;SDS011;3921;42.266;23.122;2022-10-16T03:25:01;6.90;;;4.67;;
7753;SDS011;3921;42.266;23.122;2022-10-16T03:27:36;5.23;;;4.73;;
7753;SDS011;3921;42.266;23.122;2022-10-16T03:30:09;10.50;;;5.93;;
7753;SDS011;3921;42.266;23.122;2022-10-16T03:32:36;6.87;;;5.10;;
7753;SDS011;3921;42.266;23.122;2022-10-16T03:35:04;6.27;;;4.90;;
7753;SDS011;3921;42.266;23.122;2022-10-16T03:37:33;7.20;;;5.30;;
7753;SDS011;3921;42.266;23.122;2022-10-16T03:40:01;7.93;;;5.80;;
7753;SDS011;3921;42.266;23.122;2022-10-16T03:42:29;6.60;;;5.37;;
7753;SDS011;3921;42.266;23.122;2022-10-16T03:44:58;6.83;;;5.60;;
7753;SDS011;3921;42.266;23.122;2022-10-16T03:47:28;10.63;;;5.53;;
7753;SDS011;3921;42.266;23.122;2022-10-16T03:49:58;7.00;;;5.30;;
7753;SDS011;3921;42.266;23.122;2022-10-16T03:52:27;7.03;;;5.20;;
7753;SDS011;3921;42.266;23.122;2022-10-16T03:54:59;7.00;;;5.37;;
7753;SDS011;3921;42.266;23.122;2022-10-16T03:57:32;7.27;;;5.33;;
7753;SDS011;3921;42.266;23.122;2022-10-16T04:00:01;5.50;;;5.00;;
7753;SDS011;3921;42.266;23.122;2022-10-16T04:02:32;8.80;;;5.53;;
7753;SDS011;3921;42.266;23.122;2022-10-16T04:04:59;7.40;;;6.33;;
7753;SDS011;3921;42.266;23.122;2022-10-16T04:07:26;7.83;;;6.07;;
7753;SDS011;3921;42.266;23.122;2022-10-16T04:09:53;7.10;;;5.90;;
7753;SDS011;3921;42.266;23.122;2022-10-16T04:12:22;7.30;;;5.60;;
7753;SDS011;3921;42.266;23.122;2022-10-16T04:14:49;8.47;;;5.60;;
7753;SDS011;3921;42.266;23.122;2022-10-16T04:17:16;6.47;;;5.67;;
7753;SDS011;3921;42.266;23.122;2022-10-16T04:19:46;7.20;;;5.13;;
7753;SDS011;3921;42.266;23.122;2022-10-16T04:22:14;6.63;;;5.17;;
7753;SDS011;3921;42.266;23.122;2022-10-16T04:24:47;8.17;;;5.67;;
7753;SDS011;3921;42.266;23.122;2022-10-16T04:27:48;9.70;;;5.83;;
7753;SDS011;3921;42.266;23.122;2022-10-16T04:30:22;7.50;;;5.70;;
7753;SDS011;3921;42.266;23.122;2022-10-16T04:32:50;8.40;;;5.67;;
7753;SDS011;3921;42.266;23.122;2022-10-16T04:35:29;7.53;;;6.03;;
7753;SDS011;3921;42.266;23.122;2022-10-16T04:37:58;8.17;;;6.23;;
7753;SDS011;3921;42.266;23.122;2022-10-16T04:40:29;7.50;;;5.90;;
7753;SDS011;3921;42.266;23.122;2022-10-16T04:51:54;7.53;;;5.97;;
7753;SDS011;3921;42.266;23.122;2022-10-16T04:54:21;7.30;;;5.80;;
7753;SDS011;3921;42.266;23.122;2022-10-16T05:02:03;9.97;;;6.80;;
7753;SDS011;3921;42.266;23.122;2022-10-16T05:04:44;8.83;;;6.20;;
7753;SDS011;3921;42.266;23.122;2022-10-16T05:07:17;9.13;;;6.70;;
7753;SDS011;3921;42.266;23.122;2022-10-16T05:10:08;9.13;;;7.63;;
7753;SDS011;3921;42.266;23.122;2022-10-16T05:12:44;10.00;;;7.90;;
7753;SDS011;3921;42.266;23.122;2022-10-16T05:15:14;10.20;;;8.10;;
7753;SDS011;3921;42.266;23.122;2022-10-16T05:17:51;12.00;;;8.47;;
7753;SDS011;3921;42.266;23.122;2022-10-16T05:20:28;10.73;;;8.37;;
7753;SDS011;3921;42.266;23.122;2022-10-16T05:26:20;16.67;;;9.47;;
7753;SDS011;3921;42.266;23.122;2022-10-16T05:28:49;14.47;;;8.23;;
7753;SDS011;3921;42.266;23.122;2022-10-16T05:31:18;16.43;;;9.40;;
7753;SDS011;3921;42.266;23.122;2022-10-16T05:33:53;12.50;;;8.53;;
7753;SDS011;3921;42.266;23.122;2022-10-16T05:42:47;17.77;;;11.73;;
7753;SDS011;3921;42.266;23.122;2022-10-16T05:45:22;15.90;;;11.03;;
7753;SDS011;3921;42.266;23.122;2022-10-16T05:47:54;18.93;;;12.27;;
7753;SDS011;3921;42.266;23.122;2022-10-16T05:50:29;21.03;;;13.13;;
7753;SDS011;3921;42.266;23.122;2022-10-16T05:52:56;17.13;;;12.37;;
7753;SDS011;3921;42.266;23.122;2022-10-16T05:55:23;17.67;;;11.37;;
7753;SDS011;3921;42.266;23.122;2022-10-16T05:57:53;15.93;;;11.17;;
7753;SDS011;3921;42.266;23.122;2022-10-16T06:36:34;12.10;;;8.40;;
7753;SDS011;3921;42.266;23.122;2022-10-16T17:34:54;8.40;;;4.80;;
7753;SDS011;3921;42.266;23.122;2022-10-16T17:37:21;9.83;;;5.80;;
7753;SDS011;3921;42.266;23.122;2022-10-16T17:39:54;7.97;;;4.40;;
7753;SDS011;3921;42.266;23.122;2022-10-16T17:43:12;7.93;;;4.90;;
7753;SDS011;3921;42.266;23.122;2022-10-16T17:45:51;8.70;;;4.90;;
7753;SDS011;3921;42.266;23.122;2022-10-16T17:48:26;6.07;;;4.87;;
7753;SDS011;3921;42.266;23.122;2022-10-16T17:51:03;7.47;;;5.13;;
7753;SDS011;3921;42.266;23.122;2022-10-16T17:53:37;8.67;;;5.20;;
7753;SDS011;3921;42.266;23.122;2022-10-16T17:56:08;7.80;;;5.53;;
7753;SDS011;3921;42.266;23.122;2022-10-16T17:58:38;6.27;;;5.40;;
7753;SDS011;3921;42.266;23.122;2022-10-16T18:01:21;7.77;;;4.80;;
7753;SDS011;3921;42.266;23.122;2022-10-16T18:04:08;5.93;;;4.60;;
7753;SDS011;3921;42.266;23.122;2022-10-16T18:06:51;5.97;;;4.70;;
7753;SDS011;3921;42.266;23.122;2022-10-16T18:48:01;8.93;;;6.70;;
7753;SDS011;3921;42.266;23.122;2022-10-16T19:30:07;7.03;;;4.87;;
7753;SDS011;3921;42.266;23.122;2022-10-16T20:41:28;7.90;;;5.83;;
7753;SDS011;3921;42.266;23.122;2022-10-16T21:35:40;10.47;;;7.03;;
7753;SDS011;3921;42.266;23.122;2022-10-16T21:38:07;12.10;;;6.80;;
7753;SDS011;3921;42.266;23.122;2022-10-16T21:40:34;10.13;;;6.67;;
7753;SDS011;3921;42.266;23.122;2022-10-16T21:43:02;10.90;;;6.77;;
7753;SDS011;3921;42.266;23.122;2022-10-16T21:45:29;11.70;;;7.07;;
7753;SDS011;3921;42.266;23.122;2022-10-16T21:47:57;10.30;;;7.00;;
7753;SDS011;3921;42.266;23.122;2022-10-16T21:50:25;9.17;;;6.47;;
7753;SDS011;3921;42.266;23.122;2022-10-16T21:52:53;8.57;;;7.03;;
7753;SDS011;3921;42.266;23.122;2022-10-16T21:55:25;9.47;;;7.10;;
7753;SDS011;3921;42.266;23.122;2022-10-16T21:57:52;12.33;;;7.70;;
7753;SDS011;3921;42.266;23.122;2022-10-16T22:00:21;12.27;;;7.27;;
7753;SDS011;3921;42.266;23.122;2022-10-16T22:02:54;11.20;;;7.50;;
7753;SDS011;3921;42.266;23.122;2022-10-16T22:05:28;9.93;;;6.63;;
7753;SDS011;3921;42.266;23.122;2022-10-16T22:13:49;9.53;;;6.80;;
7753;SDS011;3921;42.266;23.122;2022-10-16T22:16:20;11.97;;;7.50;;
7753;SDS011;3921;42.266;23.122;2022-10-16T22:20:30;10.10;;;7.50;;
7753;SDS011;3921;42.266;23.122;2022-10-16T22:23:18;8.37;;;6.67;;
7753;SDS011;3921;42.266;23.122;2022-10-16T22:26:28;10.70;;;6.40;;
7753;SDS011;3921;42.266;23.122;2022-10-16T22:29:14;7.97;;;5.43;;
7753;SDS011;3921;42.266;23.122;2022-10-16T22:31:44;11.43;;;6.27;;
7753;SDS011;3921;42.266;23.122;2022-10-16T22:34:13;7.77;;;5.90;;
7753;SDS011;3921;42.266;23.122;2022-10-16T22:36:53;8.17;;;5.80;;
7753;SDS011;3921;42.266;23.122;2022-10-16T22:39:49;7.07;;;5.73;;
7753;SDS011;3921;42.266;23.122;2022-10-16T22:42:43;9.23;;;6.57;;
7753;SDS011;3921;42.266;23.122;2022-10-16T22:45:13;7.13;;;6.13;;
7753;SDS011;3921;42.266;23.122;2022-10-16T22:47:40;7.53;;;5.70;;
7753;SDS011;3921;42.266;23.122;2022-10-16T22:50:10;6.80;;;5.67;;
7753;SDS011;3921;42.266;23.122;2022-10-16T22:52:37;7.40;;;5.87;;
7753;SDS011;3921;42.266;23.122;2022-10-16T22:55:04;8.00;;;5.73;;
7753;SDS011;3921;42.266;23.122;2022-10-16T22:57:34;8.93;;;5.67;;
7753;SDS011;3921;42.266;23.122;2022-10-16T23:00:03;7.23;;;5.60;;
7753;SDS011;3921;42.266;23.122;2022-10-16T23:02:31;6.67;;;5.90;;
7753;SDS011;3921;42.266;23.122;2022-10-16T23:04:58;11.00;;;5.83;;
7753;SDS011;3921;42.266;23.122;2022-10-16T23:07:26;8.47;;;5.30;;
7753;SDS011;3921;42.266;23.122;2022-10-16T23:10:11;7.17;;;5.30;;
7753;SDS011;3921;42.266;23.122;2022-10-16T23:12:55;7.80;;;5.30;;
7753;SDS011;3921;42.266;23.122;2022-10-16T23:15:30;7.57;;;5.67;;
7753;SDS011;3921;42.266;23.122;2022-10-16T23:17:57;7.23;;;6.20;;
7753;SDS011;3921;42.266;23.122;2022-10-16T23:20:26;8.53;;;5.73;;
7753;SDS011;3921;42.266;23.122;2022-10-16T23:22:55;6.97;;;5.63;;
7753;SDS011;3921;42.266;23.122;2022-10-16T23:25:24;7.27;;;5.57;;
7753;SDS011;3921;42.266;23.122;2022-10-16T23:27:56;8.80;;;5.57;;
7753;SDS011;3921;42.266;23.122;2022-10-16T23:30:23;7.63;;;5.83;;
7753;SDS011;3921;42.266;23.122;2022-10-16T23:32:55;9.43;;;5.60;;
7753;SDS011;3921;42.266;23.122;2022-10-16T23:35:22;7.00;;;5.87;;
7753;SDS011;3921;42.266;23.122;2022-10-16T23:37:51;5.67;;;5.00;;
7753;SDS011;3921;42.266;23.122;2022-10-16T23:40:19;6.70;;;5.33;;
7753;SDS011;3921;42.266;23.122;2022-10-16T23:42:45;8.27;;;5.57;;
7753;SDS011;3921;42.266;23.122;2022-10-16T23:45:13;6.30;;;5.23;;
7753;SDS011;3921;42.266;23.122;2022-10-16T23:47:42;8.73;;;5.30;;
7753;SDS011;3921;42.266;23.122;2022-10-16T23:50:11;7.33;;;4.97;;
7753;SDS011;3921;42.266;23.122;2022-10-16T23:52:40;10.73;;;5.20;;
7753;SDS011;3921;42.266;23.122;2022-10-16T23:55:07;6.37;;;4.97;;
7753;SDS011;3921;42.266;23.122;2022-10-16T23:57:35;5.83;;;4.57;;
